createdAt,value
2022-08-21T00:02:17.133Z,23.40
2022-08-21T00:04:55.850Z,23.40
2022-08-21T00:07:26.508Z,23.30
2022-08-21T00:09:55.215Z,23.30
2022-08-21T00:12:23.789Z,23.30
2022-08-21T00:14:57.044Z,23.20
2022-08-21T00:17:26.654Z,23.20
2022-08-21T00:19:54.807Z,23.10
2022-08-21T00:22:23.260Z,23.10
2022-08-21T00:24:51.431Z,23.10
2022-08-21T00:27:19.579Z,23.00
2022-08-21T00:29:47.673Z,23.00
2022-08-21T00:32:22.031Z,22.90
2022-08-21T00:34:50.141Z,22.80
2022-08-21T00:37:18.353Z,22.80
2022-08-21T00:39:46.704Z,22.80
2022-08-21T00:42:15.950Z,22.80
2022-08-21T00:44:44.791Z,22.70
2022-08-21T00:47:13.606Z,22.70
2022-08-21T00:49:43.533Z,22.60
2022-08-21T00:52:16.364Z,22.60
2022-08-21T00:54:46.467Z,22.60
2022-08-21T00:57:19.294Z,22.50
2022-08-21T00:59:51.635Z,22.50
2022-08-21T01:02:21.142Z,22.40
2022-08-21T01:04:51.247Z,22.40
2022-08-21T01:07:21.008Z,22.30
2022-08-21T01:09:51.083Z,22.30
2022-08-21T01:12:19.681Z,22.30
2022-08-21T01:14:48.800Z,22.20
2022-08-21T01:17:18.693Z,22.20
2022-08-21T01:19:46.839Z,22.10
2022-08-21T01:22:16.381Z,22.00
2022-08-21T01:24:44.449Z,22.00
2022-08-21T01:27:12.756Z,21.90
2022-08-21T01:29:47.276Z,21.90
2022-08-21T01:32:18.454Z,21.90
2022-08-21T01:34:48.236Z,21.80
2022-08-21T01:37:19.486Z,21.80
2022-08-21T01:39:48.252Z,21.80
2022-08-21T01:42:16.842Z,21.70
2022-08-21T01:44:45.233Z,21.70
2022-08-21T01:47:15.609Z,21.70
2022-08-21T01:49:47.031Z,21.60
2022-08-21T01:52:15.554Z,21.60
2022-08-21T01:54:45.090Z,21.50
2022-08-21T01:57:19.453Z,21.50
2022-08-21T01:59:47.588Z,21.40
2022-08-21T02:02:15.701Z,21.40
2022-08-21T02:04:43.836Z,21.40
2022-08-21T02:07:13.121Z,21.40
2022-08-21T02:09:43.137Z,21.30
2022-08-21T02:12:13.429Z,21.30
2022-08-21T02:14:41.611Z,21.20
2022-08-21T02:17:10.028Z,21.20
2022-08-21T02:19:40.530Z,21.20
2022-08-21T02:22:09.569Z,21.10
2022-08-21T02:24:53.806Z,21.10
2022-08-21T02:27:27.306Z,21.00
2022-08-21T02:29:57.738Z,21.00
2022-08-21T02:32:27.018Z,21.00
2022-08-21T02:34:55.424Z,20.90
2022-08-21T02:37:23.832Z,20.90
2022-08-21T02:39:52.034Z,20.80
2022-08-21T02:42:20.648Z,20.80
2022-08-21T02:44:50.165Z,20.70
2022-08-21T02:47:18.360Z,20.70
2022-08-21T02:49:46.507Z,20.60
2022-08-21T02:52:15.677Z,20.60
2022-08-21T02:54:44.214Z,20.50
2022-08-21T02:57:12.323Z,20.50
2022-08-21T02:59:41.683Z,20.50
2022-08-21T03:02:12.517Z,20.40
2022-08-21T03:04:44.623Z,20.40
2022-08-21T03:07:16.382Z,20.40
2022-08-21T03:09:55.183Z,20.40
2022-08-21T03:12:24.161Z,20.40
2022-08-21T03:14:52.407Z,20.40
2022-08-21T03:17:29.891Z,20.40
2022-08-21T03:19:58.956Z,20.40
2022-08-21T03:22:27.921Z,20.30
2022-08-21T03:24:59.605Z,20.30
2022-08-21T03:27:28.763Z,20.30
2022-08-21T03:29:58.955Z,20.30
2022-08-21T03:32:28.711Z,20.20
2022-08-21T03:34:56.809Z,20.20
2022-08-21T03:37:26.013Z,20.20
2022-08-21T03:39:54.410Z,20.10
2022-08-21T03:42:22.637Z,20.10
2022-08-21T03:44:51.016Z,20.00
2022-08-21T03:47:19.378Z,20.00
2022-08-21T03:49:48.900Z,19.90
2022-08-21T03:52:17.994Z,19.80
2022-08-21T03:54:46.849Z,19.90
2022-08-21T03:57:15.564Z,19.90
2022-08-21T03:59:43.856Z,19.80
2022-08-21T04:02:12.695Z,19.80
2022-08-21T04:04:40.828Z,19.80
2022-08-21T04:07:10.290Z,19.80
2022-08-21T04:09:38.508Z,19.80
2022-08-21T04:12:07.046Z,19.80
2022-08-21T04:14:35.194Z,19.80
2022-08-21T04:17:03.310Z,19.70
2022-08-21T04:19:31.462Z,19.70
2022-08-21T04:22:00.338Z,19.70
2022-08-21T04:24:30.071Z,19.70
2022-08-21T04:26:58.167Z,19.70
2022-08-21T04:29:26.279Z,19.70
2022-08-21T04:31:54.453Z,19.70
2022-08-21T04:34:22.595Z,19.70
2022-08-21T04:36:50.714Z,19.70
2022-08-21T04:39:18.879Z,19.70
2022-08-21T04:41:50.306Z,19.70
2022-08-21T04:44:18.850Z,19.70
2022-08-21T04:46:46.980Z,19.70
2022-08-21T04:49:15.136Z,19.70
2022-08-21T04:51:43.531Z,19.60
2022-08-21T04:54:15.586Z,19.60
2022-08-21T04:56:47.534Z,19.60
2022-08-21T04:59:19.488Z,19.60
2022-08-21T05:01:48.232Z,19.50
2022-08-21T05:04:20.860Z,19.50
2022-08-21T05:06:50.399Z,19.50
2022-08-21T05:09:21.371Z,19.50
2022-08-21T05:11:49.824Z,19.40
2022-08-21T05:14:20.335Z,19.50
2022-08-21T05:16:48.961Z,19.50
2022-08-21T05:19:17.490Z,19.50
2022-08-21T05:21:48.409Z,19.50
2022-08-21T05:24:17.028Z,19.50
2022-08-21T05:26:46.615Z,19.50
2022-08-21T05:29:17.040Z,19.50
2022-08-21T05:31:48.941Z,19.60
2022-08-21T05:34:22.456Z,19.60
2022-08-21T05:36:50.802Z,19.60
2022-08-21T05:39:19.565Z,19.60
2022-08-21T05:41:48.697Z,19.70
2022-08-21T05:44:16.837Z,19.70
2022-08-21T05:46:45.103Z,19.80
2022-08-21T05:49:14.777Z,19.80
2022-08-21T05:51:43.431Z,19.80
2022-08-21T05:54:12.115Z,19.90
2022-08-21T05:56:40.285Z,19.90
2022-08-21T05:59:08.951Z,19.90
2022-08-21T06:01:37.808Z,20.00
2022-08-21T06:04:06.433Z,20.00
2022-08-21T06:06:36.005Z,20.10
2022-08-21T06:09:05.574Z,20.10
2022-08-21T06:11:34.467Z,20.10
2022-08-21T06:14:03.073Z,20.20
2022-08-21T06:16:31.371Z,20.20
2022-08-21T06:19:02.897Z,20.30
2022-08-21T06:21:31.291Z,20.30
2022-08-21T06:24:00.787Z,20.40
2022-08-21T06:26:29.049Z,20.40
2022-08-21T06:28:57.611Z,20.50
2022-08-21T06:31:28.192Z,20.60
2022-08-21T06:33:57.263Z,20.60
2022-08-21T06:36:25.801Z,20.70
2022-08-21T06:38:53.979Z,20.70
2022-08-21T06:41:27.078Z,20.80
2022-08-21T06:43:56.448Z,20.80
2022-08-21T06:46:25.168Z,20.90
2022-08-21T06:48:53.425Z,20.90
2022-08-21T06:51:21.925Z,20.90
2022-08-21T06:53:50.434Z,21.00
2022-08-21T06:56:18.595Z,21.10
2022-08-21T06:58:48.287Z,21.20
2022-08-21T07:01:16.761Z,21.30
2022-08-21T07:03:45.570Z,21.30
2022-08-21T07:06:13.903Z,21.40
2022-08-21T07:08:42.275Z,21.50
2022-08-21T07:11:15.231Z,21.60
2022-08-21T07:13:43.364Z,21.70
2022-08-21T07:16:13.090Z,21.80
2022-08-21T07:18:41.275Z,21.90
2022-08-21T07:21:10.689Z,22.00
2022-08-21T07:23:41.697Z,22.10
2022-08-21T07:26:10.325Z,22.20
2022-08-21T07:28:38.743Z,22.30
2022-08-21T07:31:07.713Z,22.40
2022-08-21T07:33:37.555Z,22.50
2022-08-21T07:36:06.726Z,22.50
2022-08-21T07:38:35.119Z,22.60
2022-08-21T07:41:04.814Z,22.70
2022-08-21T07:43:32.911Z,22.80
2022-08-21T07:46:01.397Z,22.90
2022-08-21T07:48:29.573Z,22.90
2022-08-21T07:51:08.310Z,23.00
2022-08-21T07:53:36.719Z,23.10
2022-08-21T07:56:06.199Z,23.20
2022-08-21T07:58:34.574Z,23.30
2022-08-21T08:01:02.858Z,23.40
2022-08-21T08:03:31.075Z,23.50
2022-08-21T08:06:00.634Z,23.60
2022-08-21T08:08:29.299Z,23.70
2022-08-21T08:10:59.769Z,23.90
2022-08-21T08:13:28.245Z,23.90
2022-08-21T08:15:56.353Z,24.00
2022-08-21T08:18:24.623Z,24.10
2022-08-21T08:20:53.255Z,24.20
2022-08-21T08:23:24.041Z,24.30
2022-08-21T08:25:52.367Z,24.30
2022-08-21T08:28:20.530Z,24.40
2022-08-21T08:30:50.226Z,24.50
2022-08-21T08:33:19.126Z,24.60
2022-08-21T08:35:49.858Z,24.70
2022-08-21T08:38:20.933Z,24.80
2022-08-21T08:41:01.061Z,24.90
2022-08-21T08:43:31.606Z,25.00
2022-08-21T08:46:03.409Z,25.10
2022-08-21T08:48:43.171Z,25.20
2022-08-21T08:51:17.565Z,25.30
2022-08-21T08:53:52.961Z,25.40
2022-08-21T08:56:30.393Z,25.60
2022-08-21T08:59:02.732Z,25.70
2022-08-21T09:01:38.801Z,25.70
2022-08-21T09:04:07.719Z,25.80
2022-08-21T09:06:48.368Z,25.90
2022-08-21T09:09:31.743Z,26.00
2022-08-21T09:12:06.330Z,26.10
2022-08-21T09:14:52.675Z,26.10
2022-08-21T09:17:37.391Z,26.20
2022-08-21T09:20:20.833Z,26.30
2022-08-21T09:23:04.496Z,26.30
2022-08-21T09:25:36.618Z,26.40
2022-08-21T09:28:09.386Z,26.40
2022-08-21T09:30:37.435Z,26.50
2022-08-21T09:33:05.604Z,26.50
2022-08-21T09:35:36.158Z,26.50
2022-08-21T09:38:08.658Z,26.60
2022-08-21T09:40:40.766Z,26.60
2022-08-21T09:43:20.144Z,26.70
2022-08-21T09:45:50.568Z,26.80
2022-08-21T09:48:22.479Z,26.90
2022-08-21T09:50:56.616Z,27.00
2022-08-21T09:53:27.368Z,27.00
2022-08-21T09:56:15.869Z,27.10
2022-08-21T09:58:48.608Z,27.20
2022-08-21T10:01:19.925Z,27.30
2022-08-21T10:03:51.724Z,27.30
2022-08-21T10:06:28.773Z,27.40
2022-08-21T10:09:07.762Z,27.50
2022-08-21T10:11:36.529Z,27.50
2022-08-21T10:14:14.696Z,27.60
2022-08-21T10:16:54.337Z,27.60
2022-08-21T10:19:32.410Z,27.70
2022-08-21T10:22:09.807Z,27.70
2022-08-21T10:24:51.169Z,27.80
2022-08-21T10:27:31.138Z,27.80
2022-08-21T10:30:05.939Z,27.90
2022-08-21T10:32:51.124Z,28.00
2022-08-21T10:35:24.680Z,28.10
2022-08-21T10:38:28.144Z,28.20
2022-08-21T10:41:08.215Z,28.20
2022-08-21T10:43:42.347Z,28.20
2022-08-21T10:46:19.934Z,28.20
2022-08-21T10:48:51.852Z,28.20
2022-08-21T10:51:40.290Z,28.20
2022-08-21T10:54:18.191Z,28.30
2022-08-21T10:56:53.204Z,28.30
2022-08-21T10:59:29.033Z,28.30
2022-08-21T11:02:03.422Z,28.30
2022-08-21T11:04:49.595Z,28.30
2022-08-21T11:07:24.034Z,28.30
2022-08-21T11:09:56.307Z,28.40
2022-08-21T11:12:29.677Z,28.40
2022-08-21T11:15:03.558Z,28.40
2022-08-21T11:17:38.392Z,28.50
2022-08-21T11:20:10.821Z,28.50
2022-08-21T11:22:47.315Z,28.50
2022-08-21T11:25:23.390Z,28.60
2022-08-21T11:27:58.506Z,28.60
2022-08-21T11:30:33.867Z,28.70
2022-08-21T11:33:21.232Z,28.70
2022-08-21T11:35:53.492Z,28.80
2022-08-21T11:38:31.230Z,28.80
2022-08-21T11:41:16.107Z,28.90
2022-08-21T11:43:46.700Z,28.90
2022-08-21T11:46:27.625Z,28.90
2022-08-21T11:49:21.860Z,28.90
2022-08-21T11:51:57.937Z,28.90
2022-08-21T11:54:35.351Z,29.00
2022-08-21T11:57:07.623Z,28.90
2022-08-21T11:59:47.235Z,28.90
2022-08-21T12:02:18.642Z,28.90
2022-08-21T12:04:49.690Z,28.90
2022-08-21T12:07:31.013Z,28.90
2022-08-21T12:10:01.261Z,28.90
2022-08-21T12:12:31.611Z,28.80
2022-08-21T12:15:15.248Z,28.80
2022-08-21T12:17:56.183Z,28.90
2022-08-21T12:20:50.107Z,28.90
2022-08-21T12:23:26.998Z,28.90
2022-08-21T12:26:22.571Z,29.00
2022-08-21T12:28:51.013Z,29.10
2022-08-21T12:31:25.508Z,29.10
2022-08-21T12:33:57.892Z,29.20
2022-08-21T12:36:41.703Z,29.20
2022-08-21T12:39:16.299Z,29.30
2022-08-21T12:41:50.241Z,29.30
2022-08-21T12:44:24.192Z,29.30
2022-08-21T12:46:58.096Z,29.30
2022-08-21T12:49:32.813Z,29.30
2022-08-21T12:52:09.746Z,29.30
2022-08-21T12:54:41.880Z,29.30
2022-08-21T12:57:19.112Z,29.40
2022-08-21T12:59:47.221Z,29.40
2022-08-21T13:02:20.850Z,29.40
2022-08-21T13:04:50.112Z,29.40
2022-08-21T13:07:33.149Z,29.40
2022-08-21T13:10:05.932Z,29.40
2022-08-21T13:12:35.056Z,29.50
2022-08-21T13:15:08.704Z,29.40
2022-08-21T13:17:41.055Z,29.40
2022-08-21T13:20:12.074Z,29.40
2022-08-21T13:22:44.959Z,29.40
2022-08-21T13:25:14.996Z,29.50
2022-08-21T13:27:48.606Z,29.50
2022-08-21T13:30:23.138Z,29.50
2022-08-21T13:32:53.357Z,29.50
2022-08-21T13:35:23.894Z,29.50
2022-08-21T13:37:53.999Z,29.50
2022-08-21T13:40:26.771Z,29.50
2022-08-21T13:42:55.806Z,29.50
2022-08-21T13:45:29.578Z,29.50
2022-08-21T13:47:57.898Z,29.50
2022-08-21T13:50:27.784Z,29.40
2022-08-21T13:53:04.902Z,29.40
2022-08-21T13:55:43.695Z,29.30
2022-08-21T13:58:13.201Z,29.20
2022-08-21T14:00:48.850Z,29.20
2022-08-21T14:03:29.546Z,29.10
2022-08-21T14:06:00.467Z,29.10
2022-08-21T14:08:35.278Z,29.10
2022-08-21T14:11:05.810Z,29.00
2022-08-21T14:13:40.412Z,29.00
2022-08-21T14:16:17.298Z,29.00
2022-08-21T14:18:47.647Z,28.90
2022-08-21T14:21:15.806Z,28.90
2022-08-21T14:23:45.449Z,28.90
2022-08-21T14:26:13.550Z,28.90
2022-08-21T14:28:43.437Z,28.90
2022-08-21T14:31:17.967Z,28.90
2022-08-21T14:33:47.949Z,28.80
2022-08-21T14:36:16.467Z,28.80
2022-08-21T14:38:45.938Z,28.80
2022-08-21T14:41:19.426Z,28.80
2022-08-21T14:43:55.761Z,28.80
2022-08-21T14:46:36.294Z,28.80
2022-08-21T14:49:09.040Z,28.90
2022-08-21T14:51:37.352Z,28.90
2022-08-21T14:54:30.586Z,28.90
2022-08-21T14:57:02.774Z,28.90
2022-08-21T14:59:32.915Z,28.90
2022-08-21T15:02:01.239Z,29.00
2022-08-21T15:04:29.742Z,29.00
2022-08-21T15:06:57.987Z,29.00
2022-08-21T15:09:27.587Z,29.00
2022-08-21T15:11:59.036Z,29.00
2022-08-21T15:14:28.231Z,28.90
2022-08-21T15:16:56.436Z,28.90
2022-08-21T15:19:24.764Z,28.90
2022-08-21T15:21:52.977Z,28.90
2022-08-21T15:24:21.059Z,28.90
2022-08-21T15:26:50.918Z,28.90
2022-08-21T15:29:22.495Z,28.90
2022-08-21T15:31:57.682Z,28.90
2022-08-21T15:34:27.325Z,28.80
2022-08-21T15:36:57.226Z,28.80
2022-08-21T15:39:31.034Z,28.80
2022-08-21T15:42:06.196Z,28.80
2022-08-21T15:44:39.554Z,28.80
2022-08-21T15:47:08.881Z,28.80
2022-08-21T15:49:37.628Z,28.80
2022-08-21T15:52:05.753Z,28.80
2022-08-21T15:54:33.891Z,28.80
2022-08-21T15:57:03.465Z,28.80
2022-08-21T15:59:34.912Z,28.70
2022-08-21T16:02:02.885Z,28.70
2022-08-21T16:04:31.019Z,28.70
2022-08-21T16:07:04.350Z,28.70
2022-08-21T16:09:35.878Z,28.70
2022-08-21T16:12:06.875Z,28.70
2022-08-21T16:14:37.648Z,28.70
2022-08-21T16:17:06.735Z,28.70
2022-08-21T16:19:35.523Z,28.70
2022-08-21T16:22:03.824Z,28.70
2022-08-21T16:24:32.115Z,28.70
2022-08-21T16:27:02.552Z,28.70
2022-08-21T16:29:36.602Z,28.80
2022-08-21T16:32:06.358Z,28.70
2022-08-21T16:34:35.121Z,28.80
2022-08-21T16:37:03.452Z,28.70
2022-08-21T16:39:31.827Z,28.80
2022-08-21T16:42:00.378Z,28.80
2022-08-21T16:44:30.123Z,28.80
2022-08-21T16:47:00.603Z,28.70
2022-08-21T16:49:28.789Z,28.70
2022-08-21T16:51:57.089Z,28.70
2022-08-21T16:54:25.451Z,28.70
2022-08-21T16:56:54.502Z,28.70
2022-08-21T16:59:22.790Z,28.60
2022-08-21T17:01:51.990Z,28.70
2022-08-21T17:04:25.909Z,28.60
2022-08-21T17:06:54.987Z,28.60
2022-08-21T17:09:23.079Z,28.60
2022-08-21T17:11:51.383Z,28.50
2022-08-21T17:14:22.823Z,28.60
2022-08-21T17:16:51.950Z,28.50
2022-08-21T17:19:21.678Z,28.50
2022-08-21T17:21:49.772Z,28.50
2022-08-21T17:24:17.922Z,28.50
2022-08-21T17:26:47.121Z,28.40
2022-08-21T17:29:16.412Z,28.40
2022-08-21T17:31:45.328Z,28.30
2022-08-21T17:34:15.710Z,28.30
2022-08-21T17:36:47.360Z,28.30
2022-08-21T17:39:22.314Z,28.20
2022-08-21T17:41:58.173Z,28.20
2022-08-21T17:44:27.101Z,28.20
2022-08-21T17:46:55.352Z,28.20
2022-08-21T17:49:24.175Z,28.10
2022-08-21T17:51:53.921Z,28.10
2022-08-21T17:54:22.045Z,28.10
2022-08-21T17:56:50.139Z,28.00
2022-08-21T17:59:18.472Z,27.90
2022-08-21T18:01:48.153Z,27.90
2022-08-21T18:04:16.903Z,27.80
2022-08-21T18:06:46.036Z,27.80
2022-08-21T18:09:15.540Z,27.80
2022-08-21T18:11:44.796Z,27.70
2022-08-21T18:14:13.497Z,27.70
2022-08-21T18:16:41.960Z,27.60
2022-08-21T18:19:15.351Z,27.60
2022-08-21T18:21:43.582Z,27.60
2022-08-21T18:24:11.707Z,27.50
2022-08-21T18:26:42.570Z,27.50
2022-08-21T18:29:13.530Z,27.40
2022-08-21T18:31:43.635Z,27.40
2022-08-21T18:34:20.307Z,27.30
2022-08-21T18:36:49.074Z,27.30
2022-08-21T18:39:35.951Z,27.20
2022-08-21T18:42:10.059Z,27.20
2022-08-21T18:44:39.330Z,27.10
2022-08-21T18:47:11.519Z,27.00
2022-08-21T18:49:41.585Z,27.00
2022-08-21T18:52:09.979Z,26.90
2022-08-21T18:54:44.451Z,26.80
2022-08-21T18:57:14.739Z,26.70
2022-08-21T18:59:43.954Z,26.70
2022-08-21T19:02:12.425Z,26.60
2022-08-21T19:04:44.825Z,26.50
2022-08-21T19:07:14.686Z,26.50
2022-08-21T19:09:56.845Z,26.40
2022-08-21T19:12:29.640Z,26.40
2022-08-21T19:14:59.475Z,26.30
2022-08-21T19:17:29.049Z,26.20
2022-08-21T19:20:03.521Z,26.20
2022-08-21T19:22:31.767Z,26.10
2022-08-21T19:24:59.964Z,26.10
2022-08-21T19:27:29.526Z,26.00
2022-08-21T19:29:57.921Z,25.90
2022-08-21T19:32:27.813Z,25.90
2022-08-21T19:34:56.318Z,25.80
2022-08-21T19:37:26.904Z,25.80
2022-08-21T19:39:56.062Z,25.70
2022-08-21T19:42:28.780Z,25.70
2022-08-21T19:45:15.206Z,25.60
2022-08-21T19:47:47.955Z,25.60
2022-08-21T19:53:05.187Z,25.50
2022-08-21T19:55:44.600Z,25.40
2022-08-21T19:58:25.075Z,25.40
2022-08-21T20:00:54.653Z,25.30
2022-08-21T20:03:23.056Z,25.30
2022-08-21T20:05:51.183Z,25.20
2022-08-21T20:08:22.240Z,25.20
2022-08-21T20:10:58.072Z,25.20
2022-08-21T20:13:26.647Z,25.10
2022-08-21T20:15:56.246Z,25.10
2022-08-21T20:18:27.038Z,25.10
2022-08-21T20:20:55.611Z,25.00
2022-08-21T20:23:29.822Z,25.00
2022-08-21T20:25:58.950Z,25.00
2022-08-21T20:28:27.230Z,24.90
2022-08-21T20:30:58.409Z,24.90
2022-08-21T20:33:26.844Z,24.90
2022-08-21T20:35:55.118Z,24.90
2022-08-21T20:38:23.805Z,24.90
2022-08-21T20:40:54.894Z,24.90
2022-08-21T20:43:23.956Z,24.80
2022-08-21T20:45:52.438Z,24.80
2022-08-21T20:49:00.823Z,24.80
2022-08-21T20:51:41.458Z,24.80
2022-08-21T20:54:19.615Z,24.80
2022-08-21T20:56:53.167Z,24.80
2022-08-21T20:59:40.076Z,24.70
2022-08-21T21:02:21.882Z,24.70
2022-08-21T21:04:52.170Z,24.70
2022-08-21T21:07:27.345Z,24.70
2022-08-21T21:09:58.421Z,24.70
2022-08-21T21:12:32.699Z,24.60
2022-08-21T21:15:06.210Z,24.50
2022-08-21T21:17:43.000Z,24.50
2022-08-21T21:20:17.294Z,24.50
2022-08-21T21:22:50.422Z,24.50
2022-08-21T21:25:23.624Z,24.50
2022-08-21T21:27:58.727Z,24.50
2022-08-21T21:30:32.263Z,24.40
2022-08-21T21:33:00.774Z,24.30
2022-08-21T21:35:38.366Z,24.40
2022-08-21T21:38:17.831Z,24.30
2022-08-21T21:40:54.667Z,24.30
2022-08-21T21:43:36.516Z,24.30
2022-08-21T21:46:17.063Z,24.20
2022-08-21T21:49:21.532Z,24.20
2022-08-21T21:52:00.952Z,24.10
2022-08-21T21:54:52.053Z,24.10
2022-08-21T21:57:32.259Z,24.00
2022-08-21T22:00:09.632Z,24.00
2022-08-21T22:02:50.032Z,23.90
2022-08-21T22:05:27.855Z,23.90
2022-08-21T22:08:07.777Z,23.90
2022-08-21T22:10:44.968Z,23.90
2022-08-21T22:13:26.197Z,23.80
2022-08-21T22:15:55.534Z,23.80
2022-08-21T22:18:27.560Z,23.80
2022-08-21T22:20:58.498Z,23.80
2022-08-21T22:23:32.563Z,23.80
2022-08-21T22:26:07.483Z,23.80
2022-08-21T22:28:40.122Z,23.80
2022-08-21T22:31:21.769Z,23.80
2022-08-21T22:34:03.031Z,23.80
2022-08-21T22:36:34.020Z,23.80
2022-08-21T22:39:03.936Z,23.80
2022-08-21T22:41:38.758Z,23.70
2022-08-21T22:44:12.076Z,23.70
2022-08-21T22:46:46.132Z,23.60
2022-08-21T22:49:29.375Z,23.60
2022-08-21T22:52:10.711Z,23.60
2022-08-21T22:54:42.289Z,23.60
2022-08-21T22:57:23.139Z,23.60
2022-08-21T22:59:57.372Z,23.50
2022-08-21T23:02:35.591Z,23.50
2022-08-21T23:05:16.419Z,23.40
2022-08-21T23:07:49.879Z,23.40
2022-08-21T23:10:26.251Z,23.40
2022-08-21T23:13:02.071Z,23.40
2022-08-21T23:15:41.822Z,23.40
2022-08-21T23:18:17.762Z,23.30
2022-08-21T23:20:56.314Z,23.30
2022-08-21T23:23:28.141Z,23.30
2022-08-21T23:26:22.914Z,23.30
2022-08-21T23:29:07.706Z,23.30
2022-08-21T23:31:42.388Z,23.20
2022-08-21T23:34:22.100Z,23.20
2022-08-21T23:40:51.191Z,23.10
2022-08-21T23:43:37.669Z,23.10
2022-08-21T23:46:33.982Z,23.10
2022-08-21T23:49:13.387Z,23.10
2022-08-21T23:51:58.110Z,23.00
2022-08-21T23:54:32.687Z,23.00
2022-08-21T23:57:08.944Z,22.90
2022-08-21T23:59:47.653Z,22.90
